createdAt,value
2019-03-22T00:04:04.117Z,6.15
2019-03-22T00:06:48.688Z,5.99
2019-03-22T00:10:00.010Z,6.22
2019-03-22T00:13:02.142Z,6.88
2019-03-22T00:15:34.010Z,6.40
2019-03-22T00:18:55.721Z,6.49
2019-03-22T00:21:28.080Z,6.55
2019-03-22T00:24:30.205Z,5.17
2019-03-22T00:27:32.164Z,6.32
2019-03-22T00:30:04.004Z,7.58
2019-03-22T00:35:59.124Z,8.44
2019-03-22T00:38:50.392Z,8.69
2019-03-22T00:41:41.567Z,9.03
2019-03-22T00:44:51.546Z,9.08
2019-03-22T00:50:27.272Z,8.11
2019-03-22T00:53:18.441Z,7.98
2019-03-22T01:05:02.361Z,8.09
2019-03-22T01:07:47.056Z,7.27
2019-03-22T01:10:21.782Z,6.92
2019-03-22T01:13:13.014Z,6.79
2019-03-22T01:16:22.989Z,7.64
2019-03-22T01:22:01.419Z,6.85
2019-03-22T01:27:49.360Z,6.10
2019-03-22T01:33:17.610Z,6.67
2019-03-22T01:35:51.430Z,7.01
2019-03-22T01:38:53.262Z,6.83
2019-03-22T01:41:26.214Z,6.27
2019-03-22T01:44:28.590Z,5.79
2019-03-22T01:50:03.282Z,5.78
2019-03-22T01:52:54.457Z,6.04
2019-03-22T01:58:43.108Z,5.82
2019-03-22T02:01:15.584Z,5.71
2019-03-22T02:04:06.774Z,6.00
2019-03-22T02:12:41.736Z,7.62
2019-03-22T02:18:29.389Z,7.19
2019-03-22T02:21:14.414Z,6.85
2019-03-22T02:23:48.625Z,6.33
2019-03-22T02:32:28.639Z,7.82
2019-03-22T02:35:28.998Z,7.86
2019-03-22T02:40:48.695Z,7.29
2019-03-22T02:43:50.508Z,6.72
2019-03-22T02:46:24.758Z,7.01
2019-03-22T02:52:14.257Z,6.40
2019-03-22T02:54:48.664Z,7.31
2019-03-22T03:00:25.414Z,8.26
2019-03-22T03:03:16.581Z,8.07
2019-03-22T03:06:20.522Z,7.78
2019-03-22T03:09:04.214Z,6.88
2019-03-22T03:11:49.081Z,7.02
2019-03-22T03:14:39.955Z,5.74
2019-03-22T03:17:31.399Z,5.27
2019-03-22T03:20:26.506Z,5.41
2019-03-22T03:23:11.743Z,6.60
2019-03-22T03:25:46.096Z,6.91
2019-03-22T03:28:39.269Z,6.94
2019-03-22T03:34:36.063Z,6.75
2019-03-22T03:48:30.700Z,6.04
2019-03-22T03:56:51.747Z,6.19
2019-03-22T03:59:42.948Z,6.92
2019-03-22T04:05:19.116Z,7.34
2019-03-22T04:08:29.082Z,6.84
2019-03-22T04:11:20.250Z,6.40
2019-03-22T04:17:06.314Z,7.43
2019-03-22T04:19:40.127Z,7.69
2019-03-22T04:25:16.207Z,6.56
2019-03-22T04:36:40.976Z,8.18
2019-03-22T04:39:32.189Z,8.42
2019-03-22T04:48:13.334Z,5.59
2019-03-22T05:00:20.718Z,4.72
2019-03-22T05:18:52.496Z,6.38
2019-03-22T05:27:59.796Z,5.17
2019-03-22T05:31:28.625Z,5.03
2019-03-22T05:34:19.354Z,4.94
2019-03-22T05:40:17.403Z,4.62
2019-03-22T05:43:02.920Z,4.50
2019-03-22T05:45:46.569Z,4.63
2019-03-22T05:51:03.577Z,4.59
2019-03-22T05:53:54.854Z,4.47
2019-03-22T05:56:46.135Z,4.71
2019-03-22T06:00:15.045Z,4.61
2019-03-22T06:05:53.574Z,4.84
2019-03-22T06:11:41.645Z,5.65
2019-03-22T06:14:25.078Z,5.56
2019-03-22T06:16:57.644Z,5.89
2019-03-22T06:22:34.906Z,7.42
2019-03-22T06:25:26.211Z,7.14
2019-03-22T06:28:28.637Z,6.94
2019-03-22T06:31:00.830Z,7.07
2019-03-22T06:33:52.071Z,7.13
2019-03-22T06:36:55.177Z,7.49
2019-03-22T06:42:15.857Z,8.88
2019-03-22T06:45:25.997Z,9.44
2019-03-22T06:54:58.082Z,10.74
2019-03-22T06:57:45.453Z,10.30
2019-03-22T07:03:21.475Z,10.93
2019-03-22T07:06:04.863Z,10.68
2019-03-22T07:08:57.615Z,10.76
2019-03-22T07:11:48.791Z,10.93
2019-03-22T07:17:29.989Z,11.37
2019-03-22T07:20:21.148Z,11.31
2019-03-22T07:23:23.656Z,12.11
2019-03-22T07:25:58.048Z,12.45
2019-03-22T07:29:00.262Z,12.62
2019-03-22T07:34:20.096Z,11.92
2019-03-22T07:37:11.386Z,12.02
2019-03-22T07:42:57.165Z,13.06
2019-03-22T07:48:13.198Z,13.98
2019-03-22T07:51:04.399Z,14.26
2019-03-22T08:02:25.648Z,14.22
2019-03-22T08:07:58.290Z,14.25
2019-03-22T08:10:30.427Z,14.72
2019-03-22T08:18:49.396Z,15.26
2019-03-22T08:21:51.900Z,15.07
2019-03-22T08:24:36.279Z,15.43
2019-03-22T08:27:22.181Z,14.91
2019-03-22T08:29:54.195Z,14.91
2019-03-22T08:32:45.369Z,14.86
2019-03-22T08:35:48.079Z,15.26
2019-03-22T08:38:22.556Z,15.21
2019-03-22T08:41:13.831Z,15.38
2019-03-22T08:47:04.127Z,14.57
2019-03-22T08:52:41.177Z,16.34
2019-03-22T08:55:43.754Z,16.62
2019-03-22T08:58:27.319Z,15.89
2019-03-22T09:01:18.773Z,15.68
2019-03-22T09:04:09.928Z,15.90
2019-03-22T09:07:11.975Z,16.45
2019-03-22T09:09:46.330Z,16.31
2019-03-22T09:12:48.058Z,16.47
2019-03-22T09:18:09.590Z,16.75
2019-03-22T09:29:16.521Z,17.81
2019-03-22T09:32:07.684Z,17.72
2019-03-22T09:37:43.607Z,19.45
2019-03-22T09:40:34.852Z,21.94
2019-03-22T09:43:16.831Z,25.69
2019-03-22T09:46:19.155Z,27.85
2019-03-22T09:48:52.689Z,30.31
2019-03-22T09:54:31.670Z,32.54
2019-03-22T09:57:22.917Z,32.63
2019-03-22T10:03:31.354Z,33.74
2019-03-22T10:06:04.013Z,33.40
2019-03-22T10:08:46.886Z,34.22
2019-03-22T10:11:39.500Z,32.84
2019-03-22T10:14:31.467Z,32.74
2019-03-22T10:20:19.734Z,31.33
2019-03-22T10:26:07.399Z,33.81
2019-03-22T10:28:52.258Z,37.09
2019-03-22T10:31:37.066Z,35.13
2019-03-22T10:37:08.505Z,35.48
2019-03-22T10:39:42.063Z,30.13
2019-03-22T10:42:52.052Z,30.14
2019-03-22T10:51:10.913Z,31.11
2019-03-22T10:54:13.438Z,26.20
2019-03-22T10:56:57.660Z,30.46
2019-03-22T10:59:30.665Z,31.73
2019-03-22T11:08:22.314Z,26.71
2019-03-22T11:14:01.649Z,22.64
2019-03-22T11:17:04.198Z,22.11
2019-03-22T11:19:49.668Z,22.07
2019-03-22T11:22:22.309Z,22.04
2019-03-22T11:25:33.781Z,21.94
2019-03-22T11:31:08.107Z,21.85
2019-03-22T11:34:11.584Z,22.48
2019-03-22T11:36:54.144Z,23.45
2019-03-22T11:39:28.152Z,23.60
2019-03-22T11:42:19.466Z,22.94
2019-03-22T11:51:35.047Z,23.91
2019-03-22T11:57:14.865Z,23.90
2019-03-22T12:00:37.927Z,23.19
2019-03-22T12:03:12.534Z,23.01
2019-03-22T12:08:47.462Z,23.37
2019-03-22T12:11:30.406Z,22.07
2019-03-22T12:14:14.521Z,23.08
2019-03-22T12:16:46.512Z,22.19
2019-03-22T12:19:48.723Z,22.76
2019-03-22T12:30:58.301Z,24.40
2019-03-22T12:39:17.037Z,23.47
2019-03-22T12:42:19.773Z,23.73
2019-03-22T12:45:04.790Z,24.03
2019-03-22T12:47:37.448Z,23.74
2019-03-22T12:50:58.689Z,23.51
2019-03-22T12:53:50.858Z,22.98
2019-03-22T12:56:42.001Z,21.90
2019-03-22T12:59:33.185Z,20.36
2019-03-22T13:02:04.999Z,20.06
2019-03-22T13:04:56.272Z,20.91
2019-03-22T13:07:47.555Z,22.10
2019-03-22T13:10:39.387Z,21.78
2019-03-22T13:19:13.661Z,23.25
2019-03-22T13:24:31.607Z,24.53
2019-03-22T13:27:42.010Z,22.06
2019-03-22T13:36:39.896Z,25.59
2019-03-22T13:39:32.477Z,24.54
2019-03-22T13:42:29.174Z,25.04
2019-03-22T13:45:19.162Z,24.68
2019-03-22T13:47:54.512Z,25.00
2019-03-22T13:50:45.717Z,25.28
2019-03-22T13:53:36.908Z,25.66
2019-03-22T13:56:28.129Z,25.84
2019-03-22T14:02:04.101Z,24.42
2019-03-22T14:05:14.139Z,24.96
2019-03-22T14:08:15.952Z,25.03
2019-03-22T14:11:00.755Z,25.37
2019-03-22T14:16:33.500Z,23.94
2019-03-22T14:19:18.739Z,23.43
2019-03-22T14:21:51.795Z,22.23
2019-03-22T14:24:54.035Z,20.94
2019-03-22T14:36:08.529Z,20.75
2019-03-22T14:38:53.539Z,21.96
2019-03-22T14:41:37.525Z,23.07
2019-03-22T14:44:11.003Z,22.73
2019-03-22T14:47:02.127Z,22.70
2019-03-22T14:49:53.265Z,23.26
2019-03-22T14:52:44.403Z,22.41
2019-03-22T14:55:35.596Z,20.63
2019-03-22T15:01:11.204Z,21.45
2019-03-22T15:07:06.111Z,23.05
2019-03-22T15:09:57.347Z,22.59
2019-03-22T15:16:10.436Z,22.98
2019-03-22T15:19:20.516Z,23.35
2019-03-22T15:22:22.255Z,22.99
2019-03-22T15:25:05.260Z,22.52
2019-03-22T15:30:42.102Z,22.15
2019-03-22T15:36:27.950Z,22.53
2019-03-22T15:47:33.158Z,22.87
2019-03-22T15:53:28.106Z,22.13
2019-03-22T15:56:02.904Z,22.49
2019-03-22T15:59:04.950Z,22.28
2019-03-22T16:01:48.970Z,20.82
2019-03-22T16:04:23.244Z,20.89
2019-03-22T16:07:25.721Z,21.03
2019-03-22T16:10:00.554Z,21.45
2019-03-22T16:12:43.485Z,21.43
2019-03-22T16:15:45.461Z,20.28
2019-03-22T16:18:20.398Z,19.87
2019-03-22T16:21:21.415Z,20.67
2019-03-22T16:27:26.229Z,19.56
2019-03-22T16:30:17.176Z,18.35
2019-03-22T16:33:19.902Z,17.91
2019-03-22T16:36:03.757Z,17.83
2019-03-22T16:41:31.876Z,17.74
2019-03-22T16:44:05.080Z,17.65
2019-03-22T16:46:43.853Z,17.70
2019-03-22T16:52:22.346Z,17.95
2019-03-22T16:55:33.970Z,18.18
2019-03-22T16:58:25.167Z,17.98
2019-03-22T17:04:20.477Z,17.90
2019-03-22T17:07:11.689Z,17.67
2019-03-22T17:10:23.491Z,17.50
2019-03-22T17:13:04.819Z,17.83
2019-03-22T17:15:55.978Z,17.75
2019-03-22T17:19:05.994Z,17.72
2019-03-22T17:21:57.227Z,17.81
2019-03-22T17:24:59.275Z,17.97
2019-03-22T17:27:42.757Z,18.33
2019-03-22T17:30:26.353Z,18.56
2019-03-22T17:32:58.796Z,18.41
2019-03-22T17:35:50.042Z,18.17
2019-03-22T17:41:44.713Z,17.60
2019-03-22T17:44:35.945Z,17.93
2019-03-22T17:47:38.268Z,18.67
2019-03-22T17:53:18.054Z,18.70
2019-03-22T17:56:19.955Z,19.30
2019-03-22T17:59:04.580Z,19.31
2019-03-22T18:01:38.255Z,19.48
2019-03-22T18:04:40.501Z,19.66
2019-03-22T18:07:13.973Z,18.45
2019-03-22T18:13:20.581Z,16.98
2019-03-22T18:16:04.499Z,17.90
2019-03-22T18:18:38.022Z,17.79
2019-03-22T18:21:40.591Z,17.78
2019-03-22T18:24:14.001Z,16.53
2019-03-22T18:27:05.193Z,15.40
2019-03-22T18:29:56.437Z,15.44
2019-03-22T18:32:47.666Z,15.88
2019-03-22T18:35:19.583Z,16.56
2019-03-22T18:38:22.139Z,16.73
2019-03-22T18:43:40.054Z,16.51
2019-03-22T18:49:24.696Z,17.42
2019-03-22T18:52:17.926Z,17.16
2019-03-22T18:58:15.969Z,15.52
2019-03-22T19:01:18.312Z,16.05
2019-03-22T19:03:52.685Z,15.95
2019-03-22T19:06:44.098Z,16.64
2019-03-22T19:09:46.730Z,16.48
2019-03-22T19:12:20.339Z,15.90
2019-03-22T19:15:23.945Z,15.73
2019-03-22T19:18:06.428Z,15.93
2019-03-22T19:20:38.315Z,16.38
2019-03-22T19:26:14.422Z,15.26
2019-03-22T19:29:05.567Z,15.35
2019-03-22T19:31:56.703Z,15.80
2019-03-22T19:34:54.304Z,15.62
2019-03-22T19:37:31.392Z,15.40
2019-03-22T19:40:22.797Z,15.38
2019-03-22T19:43:24.727Z,14.81
2019-03-22T19:46:10.893Z,14.27
2019-03-22T19:48:54.017Z,14.16
2019-03-22T19:51:28.275Z,14.03
2019-03-22T19:54:19.447Z,14.14
2019-03-22T19:57:10.795Z,14.28
2019-03-22T20:00:20.784Z,14.18
2019-03-22T20:05:56.313Z,13.84
2019-03-22T20:08:47.684Z,13.78
2019-03-22T20:14:34.521Z,13.24
2019-03-22T20:17:08.473Z,13.48
2019-03-22T20:20:10.378Z,13.45
2019-03-22T20:25:40.783Z,13.48
2019-03-22T20:28:25.801Z,14.17
2019-03-22T20:31:17.310Z,14.71
2019-03-22T20:36:53.675Z,14.12
2019-03-22T20:42:31.654Z,13.33
2019-03-22T20:45:24.328Z,13.23
2019-03-22T20:48:17.491Z,12.70
2019-03-22T20:51:02.768Z,12.41
2019-03-22T20:53:46.649Z,12.70
2019-03-22T21:02:07.023Z,12.41
2019-03-22T21:04:50.027Z,12.94
2019-03-22T21:13:19.581Z,13.85
2019-03-22T21:16:10.986Z,13.36
2019-03-22T21:21:47.999Z,12.19
2019-03-22T21:27:33.533Z,12.16
2019-03-22T21:33:12.748Z,11.98
2019-03-22T21:36:03.927Z,12.01
2019-03-22T21:38:55.145Z,12.00
2019-03-22T21:41:46.243Z,12.25
2019-03-22T21:44:37.504Z,12.28
2019-03-22T21:47:58.984Z,12.12
2019-03-22T21:58:55.447Z,11.70
2019-03-22T22:01:48.842Z,11.37
2019-03-22T22:04:58.947Z,12.50
2019-03-22T22:08:09.056Z,12.81
2019-03-22T22:13:43.951Z,12.43
2019-03-22T22:16:35.217Z,11.84
2019-03-22T22:22:22.327Z,11.88
2019-03-22T22:24:56.130Z,11.97
2019-03-22T22:27:59.735Z,12.80
2019-03-22T22:30:43.735Z,11.91
2019-03-22T22:33:17.153Z,11.38
2019-03-22T22:36:18.887Z,11.31
2019-03-22T22:39:12.010Z,11.29
2019-03-22T22:44:48.304Z,11.53
2019-03-22T22:47:58.420Z,11.28
2019-03-22T22:50:59.647Z,11.23
2019-03-22T22:53:32.100Z,11.20
2019-03-22T22:56:42.077Z,10.88
2019-03-22T22:59:14.291Z,10.45
2019-03-22T23:02:05.480Z,10.17
2019-03-22T23:05:15.452Z,10.12
2019-03-22T23:08:18.086Z,10.59
2019-03-22T23:16:20.449Z,10.61
2019-03-22T23:19:23.119Z,10.19
2019-03-22T23:21:56.464Z,10.37
2019-03-22T23:27:51.457Z,10.47
2019-03-22T23:36:19.776Z,10.05
2019-03-22T23:39:13.990Z,10.01
2019-03-22T23:42:05.220Z,9.93
2019-03-22T23:45:15.222Z,10.12
2019-03-22T23:48:06.375Z,9.94
2019-03-22T23:50:57.536Z,9.75
2019-03-22T23:56:44.409Z,9.77
2019-03-22T23:59:28.204Z,9.82
